sensor_id;sensor_type;location;lat;lon;timestamp;P1;durP1;ratioP1;P2;durP2;ratioP2
30149;SDS011;16962;48.646;9.026;2022-08-21T00:01:41;5.18;;;2.45;;
30149;SDS011;16962;48.646;9.026;2022-08-21T00:04:31;4.25;;;2.35;;
30149;SDS011;16962;48.646;9.026;2022-08-21T00:07:18;4.07;;;2.47;;
30149;SDS011;16962;48.646;9.026;2022-08-21T00:10:11;5.93;;;2.55;;
30149;SDS011;16962;48.646;9.026;2022-08-21T00:12:59;5.32;;;2.20;;
30149;SDS011;16962;48.646;9.026;2022-08-21T00:15:50;5.30;;;2.58;;
30149;SDS011;16962;48.646;9.026;2022-08-21T00:18:37;6.20;;;2.55;;
30149;SDS011;16962;48.646;9.026;2022-08-21T00:21:25;7.18;;;2.70;;
30149;SDS011;16962;48.646;9.026;2022-08-21T00:24:15;4.65;;;2.60;;
30149;SDS011;16962;48.646;9.026;2022-08-21T00:27:04;4.72;;;2.58;;
30149;SDS011;16962;48.646;9.026;2022-08-21T00:29:53;4.97;;;2.80;;
30149;SDS011;16962;48.646;9.026;2022-08-21T00:32:40;6.55;;;2.72;;
30149;SDS011;16962;48.646;9.026;2022-08-21T00:35:31;8.27;;;2.70;;
30149;SDS011;16962;48.646;9.026;2022-08-21T00:38:23;4.03;;;2.25;;
30149;SDS011;16962;48.646;9.026;2022-08-21T00:41:13;7.30;;;2.80;;
30149;SDS011;16962;48.646;9.026;2022-08-21T00:44:20;4.63;;;2.58;;
30149;SDS011;16962;48.646;9.026;2022-08-21T00:47:07;9.98;;;2.63;;
30149;SDS011;16962;48.646;9.026;2022-08-21T00:49:55;4.35;;;2.90;;
30149;SDS011;16962;48.646;9.026;2022-08-21T00:52:43;8.52;;;2.85;;
30149;SDS011;16962;48.646;9.026;2022-08-21T00:55:31;4.78;;;2.90;;
30149;SDS011;16962;48.646;9.026;2022-08-21T00:58:25;5.60;;;2.55;;
30149;SDS011;16962;48.646;9.026;2022-08-21T01:01:17;4.90;;;2.90;;
30149;SDS011;16962;48.646;9.026;2022-08-21T01:04:04;6.03;;;2.85;;
30149;SDS011;16962;48.646;9.026;2022-08-21T01:06:54;4.10;;;2.67;;
30149;SDS011;16962;48.646;9.026;2022-08-21T01:09:45;3.40;;;2.67;;
30149;SDS011;16962;48.646;9.026;2022-08-21T01:12:34;8.73;;;2.72;;
30149;SDS011;16962;48.646;9.026;2022-08-21T01:15:23;5.70;;;2.70;;
30149;SDS011;16962;48.646;9.026;2022-08-21T01:18:13;5.25;;;2.58;;
30149;SDS011;16962;48.646;9.026;2022-08-21T01:21:09;7.18;;;2.90;;
30149;SDS011;16962;48.646;9.026;2022-08-21T01:24:05;9.07;;;3.10;;
30149;SDS011;16962;48.646;9.026;2022-08-21T01:26:52;6.38;;;2.95;;
30149;SDS011;16962;48.646;9.026;2022-08-21T01:29:43;4.47;;;3.13;;
30149;SDS011;16962;48.646;9.026;2022-08-21T01:32:39;6.43;;;2.92;;
30149;SDS011;16962;48.646;9.026;2022-08-21T01:35:29;4.65;;;2.92;;
30149;SDS011;16962;48.646;9.026;2022-08-21T01:38:16;4.47;;;2.67;;
30149;SDS011;16962;48.646;9.026;2022-08-21T01:41:04;8.27;;;3.45;;
30149;SDS011;16962;48.646;9.026;2022-08-21T01:43:51;6.55;;;3.05;;
30149;SDS011;16962;48.646;9.026;2022-08-21T01:46:38;7.60;;;2.90;;
30149;SDS011;16962;48.646;9.026;2022-08-21T01:49:26;4.88;;;2.80;;
30149;SDS011;16962;48.646;9.026;2022-08-21T01:52:13;5.40;;;3.30;;
30149;SDS011;16962;48.646;9.026;2022-08-21T01:55:00;7.38;;;3.20;;
30149;SDS011;16962;48.646;9.026;2022-08-21T01:57:48;7.15;;;3.72;;
30149;SDS011;16962;48.646;9.026;2022-08-21T02:00:35;7.47;;;3.42;;
30149;SDS011;16962;48.646;9.026;2022-08-21T02:03:22;7.03;;;3.20;;
30149;SDS011;16962;48.646;9.026;2022-08-21T02:06:20;6.53;;;3.15;;
30149;SDS011;16962;48.646;9.026;2022-08-21T02:09:10;7.72;;;3.20;;
30149;SDS011;16962;48.646;9.026;2022-08-21T02:12:10;6.45;;;2.95;;
30149;SDS011;16962;48.646;9.026;2022-08-21T02:14:57;8.05;;;3.50;;
30149;SDS011;16962;48.646;9.026;2022-08-21T02:17:50;5.35;;;3.67;;
30149;SDS011;16962;48.646;9.026;2022-08-21T02:20:41;5.97;;;3.42;;
30149;SDS011;16962;48.646;9.026;2022-08-21T02:23:32;9.95;;;4.32;;
30149;SDS011;16962;48.646;9.026;2022-08-21T02:26:19;10.23;;;4.35;;
30149;SDS011;16962;48.646;9.026;2022-08-21T02:29:09;6.78;;;3.70;;
30149;SDS011;16962;48.646;9.026;2022-08-21T02:31:56;8.00;;;3.90;;
30149;SDS011;16962;48.646;9.026;2022-08-21T02:34:44;5.30;;;2.95;;
30149;SDS011;16962;48.646;9.026;2022-08-21T02:37:35;9.23;;;3.72;;
30149;SDS011;16962;48.646;9.026;2022-08-21T02:40:40;7.57;;;3.97;;
30149;SDS011;16962;48.646;9.026;2022-08-21T02:43:36;6.25;;;3.45;;
30149;SDS011;16962;48.646;9.026;2022-08-21T02:46:23;6.65;;;3.55;;
30149;SDS011;16962;48.646;9.026;2022-08-21T02:49:10;6.70;;;3.47;;
30149;SDS011;16962;48.646;9.026;2022-08-21T02:51:57;6.55;;;3.60;;
30149;SDS011;16962;48.646;9.026;2022-08-21T02:54:46;10.23;;;4.13;;
30149;SDS011;16962;48.646;9.026;2022-08-21T02:57:35;7.70;;;3.65;;
30149;SDS011;16962;48.646;9.026;2022-08-21T03:00:25;6.60;;;3.80;;
30149;SDS011;16962;48.646;9.026;2022-08-21T03:03:19;8.82;;;4.13;;
30149;SDS011;16962;48.646;9.026;2022-08-21T03:06:09;15.02;;;3.95;;
30149;SDS011;16962;48.646;9.026;2022-08-21T03:09:02;5.03;;;3.50;;
30149;SDS011;16962;48.646;9.026;2022-08-21T03:11:54;6.07;;;4.13;;
30149;SDS011;16962;48.646;9.026;2022-08-21T03:14:50;6.95;;;4.07;;
30149;SDS011;16962;48.646;9.026;2022-08-21T03:17:43;13.43;;;4.32;;
30149;SDS011;16962;48.646;9.026;2022-08-21T03:24:13;5.50;;;4.32;;
30149;SDS011;16962;48.646;9.026;2022-08-21T03:27:25;12.40;;;4.55;;
30149;SDS011;16962;48.646;9.026;2022-08-21T03:30:19;7.95;;;4.68;;
30149;SDS011;16962;48.646;9.026;2022-08-21T03:33:17;6.22;;;3.90;;
30149;SDS011;16962;48.646;9.026;2022-08-21T03:36:14;11.20;;;4.72;;
30149;SDS011;16962;48.646;9.026;2022-08-21T03:39:15;12.68;;;4.43;;
30149;SDS011;16962;48.646;9.026;2022-08-21T03:42:04;7.88;;;4.85;;
30149;SDS011;16962;48.646;9.026;2022-08-21T03:45:01;6.05;;;4.28;;
30149;SDS011;16962;48.646;9.026;2022-08-21T03:50:42;7.53;;;4.60;;
30149;SDS011;16962;48.646;9.026;2022-08-21T03:53:36;6.22;;;4.45;;
30149;SDS011;16962;48.646;9.026;2022-08-21T03:56:23;6.55;;;4.20;;
30149;SDS011;16962;48.646;9.026;2022-08-21T03:59:13;10.63;;;5.50;;
30149;SDS011;16962;48.646;9.026;2022-08-21T04:02:04;11.55;;;5.80;;
30149;SDS011;16962;48.646;9.026;2022-08-21T04:04:55;6.57;;;5.10;;
30149;SDS011;16962;48.646;9.026;2022-08-21T04:07:45;8.95;;;5.85;;
30149;SDS011;16962;48.646;9.026;2022-08-21T04:10:33;15.18;;;7.65;;
30149;SDS011;16962;48.646;9.026;2022-08-21T04:13:22;10.32;;;6.82;;
30149;SDS011;16962;48.646;9.026;2022-08-21T04:16:09;12.07;;;6.03;;
30149;SDS011;16962;48.646;9.026;2022-08-21T04:18:56;12.25;;;6.40;;
30149;SDS011;16962;48.646;9.026;2022-08-21T04:21:46;10.40;;;6.80;;
30149;SDS011;16962;48.646;9.026;2022-08-21T04:24:34;11.50;;;6.80;;
30149;SDS011;16962;48.646;9.026;2022-08-21T04:27:22;12.40;;;6.75;;
30149;SDS011;16962;48.646;9.026;2022-08-21T04:30:12;9.07;;;6.93;;
30149;SDS011;16962;48.646;9.026;2022-08-21T04:33:03;8.57;;;6.40;;
30149;SDS011;16962;48.646;9.026;2022-08-21T04:35:50;9.90;;;6.43;;
30149;SDS011;16962;48.646;9.026;2022-08-21T04:38:39;10.52;;;6.85;;
30149;SDS011;16962;48.646;9.026;2022-08-21T04:41:30;9.00;;;6.28;;
30149;SDS011;16962;48.646;9.026;2022-08-21T04:44:17;9.30;;;6.45;;
30149;SDS011;16962;48.646;9.026;2022-08-21T04:47:08;14.15;;;8.00;;
30149;SDS011;16962;48.646;9.026;2022-08-21T04:49:55;12.13;;;7.30;;
30149;SDS011;16962;48.646;9.026;2022-08-21T04:52:42;11.75;;;7.43;;
30149;SDS011;16962;48.646;9.026;2022-08-21T04:55:30;14.48;;;7.57;;
30149;SDS011;16962;48.646;9.026;2022-08-21T04:58:20;13.15;;;7.05;;
30149;SDS011;16962;48.646;9.026;2022-08-21T05:01:13;12.48;;;7.18;;
30149;SDS011;16962;48.646;9.026;2022-08-21T05:04:04;9.88;;;6.88;;
30149;SDS011;16962;48.646;9.026;2022-08-21T05:06:55;9.50;;;6.68;;
30149;SDS011;16962;48.646;9.026;2022-08-21T05:09:46;11.85;;;6.97;;
30149;SDS011;16962;48.646;9.026;2022-08-21T05:12:34;9.57;;;6.50;;
30149;SDS011;16962;48.646;9.026;2022-08-21T05:15:22;10.18;;;6.57;;
30149;SDS011;16962;48.646;9.026;2022-08-21T05:18:09;14.02;;;6.18;;
30149;SDS011;16962;48.646;9.026;2022-08-21T05:20:57;11.07;;;6.57;;
30149;SDS011;16962;48.646;9.026;2022-08-21T05:23:44;10.73;;;5.90;;
30149;SDS011;16962;48.646;9.026;2022-08-21T05:26:32;8.70;;;6.15;;
30149;SDS011;16962;48.646;9.026;2022-08-21T05:29:31;6.47;;;5.05;;
30149;SDS011;16962;48.646;9.026;2022-08-21T05:32:18;7.63;;;5.20;;
30149;SDS011;16962;48.646;9.026;2022-08-21T05:35:05;7.93;;;5.35;;
30149;SDS011;16962;48.646;9.026;2022-08-21T05:37:54;6.25;;;4.50;;
30149;SDS011;16962;48.646;9.026;2022-08-21T05:40:45;8.75;;;4.75;;
30149;SDS011;16962;48.646;9.026;2022-08-21T05:43:33;7.97;;;4.13;;
30149;SDS011;16962;48.646;9.026;2022-08-21T05:46:22;8.98;;;4.63;;
30149;SDS011;16962;48.646;9.026;2022-08-21T05:49:10;5.97;;;4.00;;
30149;SDS011;16962;48.646;9.026;2022-08-21T05:52:02;8.00;;;3.80;;
30149;SDS011;16962;48.646;9.026;2022-08-21T05:54:50;5.28;;;3.83;;
30149;SDS011;16962;48.646;9.026;2022-08-21T05:57:40;6.15;;;4.38;;
30149;SDS011;16962;48.646;9.026;2022-08-21T06:00:30;7.82;;;4.22;;
30149;SDS011;16962;48.646;9.026;2022-08-21T06:03:19;5.55;;;4.05;;
30149;SDS011;16962;48.646;9.026;2022-08-21T06:06:08;7.65;;;3.90;;
30149;SDS011;16962;48.646;9.026;2022-08-21T06:08:56;6.85;;;3.60;;
30149;SDS011;16962;48.646;9.026;2022-08-21T06:11:43;6.80;;;3.80;;
30149;SDS011;16962;48.646;9.026;2022-08-21T06:14:31;9.15;;;3.67;;
30149;SDS011;16962;48.646;9.026;2022-08-21T06:17:18;7.55;;;3.80;;
30149;SDS011;16962;48.646;9.026;2022-08-21T06:20:06;6.82;;;4.05;;
30149;SDS011;16962;48.646;9.026;2022-08-21T06:22:54;7.80;;;3.38;;
30149;SDS011;16962;48.646;9.026;2022-08-21T06:25:41;7.88;;;3.80;;
30149;SDS011;16962;48.646;9.026;2022-08-21T06:28:36;7.22;;;3.63;;
30149;SDS011;16962;48.646;9.026;2022-08-21T06:31:24;5.20;;;3.40;;
30149;SDS011;16962;48.646;9.026;2022-08-21T06:34:14;6.53;;;3.10;;
30149;SDS011;16962;48.646;9.026;2022-08-21T06:37:01;6.35;;;3.00;;
30149;SDS011;16962;48.646;9.026;2022-08-21T06:39:49;5.05;;;2.97;;
30149;SDS011;16962;48.646;9.026;2022-08-21T06:42:37;5.13;;;3.13;;
30149;SDS011;16962;48.646;9.026;2022-08-21T06:45:28;7.78;;;3.30;;
30149;SDS011;16962;48.646;9.026;2022-08-21T06:48:18;8.90;;;3.03;;
30149;SDS011;16962;48.646;9.026;2022-08-21T06:51:09;8.23;;;2.75;;
30149;SDS011;16962;48.646;9.026;2022-08-21T06:53:56;8.15;;;3.45;;
30149;SDS011;16962;48.646;9.026;2022-08-21T06:56:45;7.38;;;3.35;;
30149;SDS011;16962;48.646;9.026;2022-08-21T06:59:32;5.85;;;2.45;;
30149;SDS011;16962;48.646;9.026;2022-08-21T07:02:20;5.80;;;2.50;;
30149;SDS011;16962;48.646;9.026;2022-08-21T07:05:09;8.25;;;2.80;;
30149;SDS011;16962;48.646;9.026;2022-08-21T07:08:04;8.90;;;3.17;;
30149;SDS011;16962;48.646;9.026;2022-08-21T07:10:56;6.97;;;2.47;;
30149;SDS011;16962;48.646;9.026;2022-08-21T07:13:46;6.05;;;2.63;;
30149;SDS011;16962;48.646;9.026;2022-08-21T07:16:39;8.20;;;2.42;;
30149;SDS011;16962;48.646;9.026;2022-08-21T07:19:28;5.78;;;2.38;;
30149;SDS011;16962;48.646;9.026;2022-08-21T07:22:15;9.35;;;2.75;;
30149;SDS011;16962;48.646;9.026;2022-08-21T07:25:06;6.43;;;2.65;;
30149;SDS011;16962;48.646;9.026;2022-08-21T07:27:53;7.78;;;2.38;;
30149;SDS011;16962;48.646;9.026;2022-08-21T07:30:41;4.57;;;2.38;;
30149;SDS011;16962;48.646;9.026;2022-08-21T07:33:30;5.30;;;2.65;;
30149;SDS011;16962;48.646;9.026;2022-08-21T07:36:20;5.72;;;2.33;;
30149;SDS011;16962;48.646;9.026;2022-08-21T07:39:07;5.88;;;2.88;;
30149;SDS011;16962;48.646;9.026;2022-08-21T07:41:54;5.47;;;2.42;;
30149;SDS011;16962;48.646;9.026;2022-08-21T07:44:44;7.90;;;2.40;;
30149;SDS011;16962;48.646;9.026;2022-08-21T07:47:31;7.15;;;2.90;;
30149;SDS011;16962;48.646;9.026;2022-08-21T07:50:33;6.95;;;2.28;;
30149;SDS011;16962;48.646;9.026;2022-08-21T07:53:21;8.00;;;3.13;;
30149;SDS011;16962;48.646;9.026;2022-08-21T07:56:10;5.60;;;2.40;;
30149;SDS011;16962;48.646;9.026;2022-08-21T07:58:58;5.45;;;2.78;;
30149;SDS011;16962;48.646;9.026;2022-08-21T08:01:45;6.15;;;2.85;;
30149;SDS011;16962;48.646;9.026;2022-08-21T08:04:33;6.30;;;2.70;;
30149;SDS011;16962;48.646;9.026;2022-08-21T08:07:20;6.82;;;2.50;;
30149;SDS011;16962;48.646;9.026;2022-08-21T08:10:10;7.25;;;2.67;;
30149;SDS011;16962;48.646;9.026;2022-08-21T08:12:58;6.65;;;2.92;;
30149;SDS011;16962;48.646;9.026;2022-08-21T08:15:45;6.45;;;2.70;;
30149;SDS011;16962;48.646;9.026;2022-08-21T08:18:33;6.03;;;2.20;;
30149;SDS011;16962;48.646;9.026;2022-08-21T08:21:21;5.07;;;2.70;;
30149;SDS011;16962;48.646;9.026;2022-08-21T08:24:08;6.20;;;2.70;;
30149;SDS011;16962;48.646;9.026;2022-08-21T08:27:05;7.28;;;2.55;;
30149;SDS011;16962;48.646;9.026;2022-08-21T08:29:52;8.02;;;3.00;;
30149;SDS011;16962;48.646;9.026;2022-08-21T08:32:40;6.45;;;2.55;;
30149;SDS011;16962;48.646;9.026;2022-08-21T08:35:27;6.57;;;2.88;;
30149;SDS011;16962;48.646;9.026;2022-08-21T08:38:19;8.50;;;3.10;;
30149;SDS011;16962;48.646;9.026;2022-08-21T08:41:12;9.75;;;2.90;;
30149;SDS011;16962;48.646;9.026;2022-08-21T08:44:07;11.05;;;3.83;;
30149;SDS011;16962;48.646;9.026;2022-08-21T08:46:55;8.10;;;2.85;;
30149;SDS011;16962;48.646;9.026;2022-08-21T08:49:49;5.25;;;2.90;;
30149;SDS011;16962;48.646;9.026;2022-08-21T08:52:49;5.35;;;2.80;;
30149;SDS011;16962;48.646;9.026;2022-08-21T08:55:44;8.57;;;2.83;;
30149;SDS011;16962;48.646;9.026;2022-08-21T08:58:34;4.57;;;2.42;;
30149;SDS011;16962;48.646;9.026;2022-08-21T09:01:26;9.23;;;3.58;;
30149;SDS011;16962;48.646;9.026;2022-08-21T09:04:22;6.43;;;2.63;;
30149;SDS011;16962;48.646;9.026;2022-08-21T09:10:34;5.70;;;2.65;;
30149;SDS011;16962;48.646;9.026;2022-08-21T09:17:06;5.97;;;2.85;;
30149;SDS011;16962;48.646;9.026;2022-08-21T09:19:59;8.48;;;2.67;;
30149;SDS011;16962;48.646;9.026;2022-08-21T09:29:06;7.28;;;2.83;;
30149;SDS011;16962;48.646;9.026;2022-08-21T09:31:57;7.45;;;3.15;;
30149;SDS011;16962;48.646;9.026;2022-08-21T09:37:55;5.82;;;2.45;;
30149;SDS011;16962;48.646;9.026;2022-08-21T09:40:46;8.02;;;2.38;;
30149;SDS011;16962;48.646;9.026;2022-08-21T09:43:51;7.25;;;2.47;;
30149;SDS011;16962;48.646;9.026;2022-08-21T09:46:49;6.65;;;2.58;;
30149;SDS011;16962;48.646;9.026;2022-08-21T09:49:39;7.72;;;2.50;;
30149;SDS011;16962;48.646;9.026;2022-08-21T09:52:27;5.45;;;2.53;;
30149;SDS011;16962;48.646;9.026;2022-08-21T09:55:16;6.07;;;2.22;;
30149;SDS011;16962;48.646;9.026;2022-08-21T09:58:31;7.70;;;2.90;;
30149;SDS011;16962;48.646;9.026;2022-08-21T10:01:23;4.60;;;2.17;;
30149;SDS011;16962;48.646;9.026;2022-08-21T10:04:14;5.35;;;2.80;;
30149;SDS011;16962;48.646;9.026;2022-08-21T10:07:13;8.32;;;2.83;;
30149;SDS011;16962;48.646;9.026;2022-08-21T10:10:03;8.05;;;2.92;;
30149;SDS011;16962;48.646;9.026;2022-08-21T10:13:22;5.10;;;2.78;;
30149;SDS011;16962;48.646;9.026;2022-08-21T10:25:27;6.13;;;2.10;;
30149;SDS011;16962;48.646;9.026;2022-08-21T10:37:11;5.15;;;2.25;;
30149;SDS011;16962;48.646;9.026;2022-08-21T10:46:25;7.03;;;2.70;;
30149;SDS011;16962;48.646;9.026;2022-08-21T10:55:43;4.72;;;2.53;;
30149;SDS011;16962;48.646;9.026;2022-08-21T10:58:40;9.68;;;2.40;;
30149;SDS011;16962;48.646;9.026;2022-08-21T11:02:01;4.10;;;2.17;;
30149;SDS011;16962;48.646;9.026;2022-08-21T11:08:05;6.63;;;2.25;;
30149;SDS011;16962;48.646;9.026;2022-08-21T11:17:14;4.93;;;1.95;;
30149;SDS011;16962;48.646;9.026;2022-08-21T11:20:21;5.30;;;2.17;;
30149;SDS011;16962;48.646;9.026;2022-08-21T11:23:16;3.75;;;2.10;;
30149;SDS011;16962;48.646;9.026;2022-08-21T11:26:15;5.13;;;2.30;;
30149;SDS011;16962;48.646;9.026;2022-08-21T11:29:13;5.35;;;2.30;;
30149;SDS011;16962;48.646;9.026;2022-08-21T11:38:22;4.45;;;1.77;;
30149;SDS011;16962;48.646;9.026;2022-08-21T11:41:19;4.82;;;1.90;;
30149;SDS011;16962;48.646;9.026;2022-08-21T11:47:53;7.13;;;2.50;;
30149;SDS011;16962;48.646;9.026;2022-08-21T11:50:43;2.85;;;1.95;;
30149;SDS011;16962;48.646;9.026;2022-08-21T11:53:34;6.18;;;2.15;;
30149;SDS011;16962;48.646;9.026;2022-08-21T11:56:41;4.18;;;2.25;;
30149;SDS011;16962;48.646;9.026;2022-08-21T12:02:55;6.10;;;2.35;;
30149;SDS011;16962;48.646;9.026;2022-08-21T12:05:52;3.92;;;2.05;;
30149;SDS011;16962;48.646;9.026;2022-08-21T12:08:43;4.75;;;2.35;;
30149;SDS011;16962;48.646;9.026;2022-08-21T12:11:32;6.38;;;2.25;;
30149;SDS011;16962;48.646;9.026;2022-08-21T12:14:38;9.00;;;3.30;;
30149;SDS011;16962;48.646;9.026;2022-08-21T12:17:38;5.20;;;2.70;;
30149;SDS011;16962;48.646;9.026;2022-08-21T12:20:33;5.78;;;2.20;;
30149;SDS011;16962;48.646;9.026;2022-08-21T12:23:47;7.43;;;2.10;;
30149;SDS011;16962;48.646;9.026;2022-08-21T12:26:56;8.10;;;2.13;;
30149;SDS011;16962;48.646;9.026;2022-08-21T12:30:03;4.82;;;1.83;;
30149;SDS011;16962;48.646;9.026;2022-08-21T12:33:06;3.58;;;2.22;;
30149;SDS011;16962;48.646;9.026;2022-08-21T12:36:20;4.35;;;2.25;;
30149;SDS011;16962;48.646;9.026;2022-08-21T12:39:13;5.57;;;2.20;;
30149;SDS011;16962;48.646;9.026;2022-08-21T12:42:16;5.20;;;2.30;;
30149;SDS011;16962;48.646;9.026;2022-08-21T12:45:19;4.90;;;2.38;;
30149;SDS011;16962;48.646;9.026;2022-08-21T12:51:23;4.65;;;2.60;;
30149;SDS011;16962;48.646;9.026;2022-08-21T12:54:21;5.68;;;2.55;;
30149;SDS011;16962;48.646;9.026;2022-08-21T12:57:20;3.85;;;1.80;;
30149;SDS011;16962;48.646;9.026;2022-08-21T13:00:19;10.43;;;2.40;;
30149;SDS011;16962;48.646;9.026;2022-08-21T13:03:11;5.18;;;2.42;;
30149;SDS011;16962;48.646;9.026;2022-08-21T13:06:02;6.00;;;2.28;;
30149;SDS011;16962;48.646;9.026;2022-08-21T13:08:52;2.78;;;1.88;;
30149;SDS011;16962;48.646;9.026;2022-08-21T13:11:47;4.05;;;2.17;;
30149;SDS011;16962;48.646;9.026;2022-08-21T13:14:39;5.30;;;2.10;;
30149;SDS011;16962;48.646;9.026;2022-08-21T13:17:54;7.65;;;2.33;;
30149;SDS011;16962;48.646;9.026;2022-08-21T13:20:50;6.43;;;2.50;;
30149;SDS011;16962;48.646;9.026;2022-08-21T13:23:38;4.18;;;2.08;;
30149;SDS011;16962;48.646;9.026;2022-08-21T13:26:26;4.38;;;2.10;;
30149;SDS011;16962;48.646;9.026;2022-08-21T13:29:14;4.30;;;2.25;;
30149;SDS011;16962;48.646;9.026;2022-08-21T13:32:13;4.15;;;2.30;;
30149;SDS011;16962;48.646;9.026;2022-08-21T13:35:12;5.45;;;2.30;;
30149;SDS011;16962;48.646;9.026;2022-08-21T13:38:07;4.57;;;2.13;;
30149;SDS011;16962;48.646;9.026;2022-08-21T13:40:59;4.93;;;2.55;;
30149;SDS011;16962;48.646;9.026;2022-08-21T13:43:56;4.78;;;2.67;;
30149;SDS011;16962;48.646;9.026;2022-08-21T13:46:46;5.93;;;2.22;;
30149;SDS011;16962;48.646;9.026;2022-08-21T13:49:39;7.18;;;2.35;;
30149;SDS011;16962;48.646;9.026;2022-08-21T13:52:31;8.10;;;2.55;;
30149;SDS011;16962;48.646;9.026;2022-08-21T13:55:18;5.68;;;2.40;;
30149;SDS011;16962;48.646;9.026;2022-08-21T13:58:06;4.60;;;2.28;;
30149;SDS011;16962;48.646;9.026;2022-08-21T14:00:55;4.90;;;2.55;;
30149;SDS011;16962;48.646;9.026;2022-08-21T14:03:44;5.72;;;2.75;;
30149;SDS011;16962;48.646;9.026;2022-08-21T14:06:35;4.18;;;2.42;;
30149;SDS011;16962;48.646;9.026;2022-08-21T14:12:32;5.93;;;2.47;;
30149;SDS011;16962;48.646;9.026;2022-08-21T14:15:41;6.70;;;2.47;;
30149;SDS011;16962;48.646;9.026;2022-08-21T14:18:28;5.60;;;2.53;;
30149;SDS011;16962;48.646;9.026;2022-08-21T14:21:23;4.75;;;2.22;;
30149;SDS011;16962;48.646;9.026;2022-08-21T14:27:16;5.68;;;2.50;;
30149;SDS011;16962;48.646;9.026;2022-08-21T14:30:12;5.20;;;2.20;;
30149;SDS011;16962;48.646;9.026;2022-08-21T14:33:08;4.10;;;2.25;;
30149;SDS011;16962;48.646;9.026;2022-08-21T14:36:05;6.40;;;2.60;;
30149;SDS011;16962;48.646;9.026;2022-08-21T14:38:52;5.32;;;2.22;;
30149;SDS011;16962;48.646;9.026;2022-08-21T14:41:40;5.30;;;1.85;;
30149;SDS011;16962;48.646;9.026;2022-08-21T14:44:29;5.80;;;2.30;;
30149;SDS011;16962;48.646;9.026;2022-08-21T14:47:24;5.18;;;2.40;;
30149;SDS011;16962;48.646;9.026;2022-08-21T14:50:11;2.92;;;2.08;;
30149;SDS011;16962;48.646;9.026;2022-08-21T14:53:02;4.47;;;2.20;;
30149;SDS011;16962;48.646;9.026;2022-08-21T14:55:56;4.88;;;2.25;;
30149;SDS011;16962;48.646;9.026;2022-08-21T14:59:02;6.80;;;2.28;;
30149;SDS011;16962;48.646;9.026;2022-08-21T15:01:52;4.35;;;1.98;;
30149;SDS011;16962;48.646;9.026;2022-08-21T15:04:42;4.68;;;2.13;;
30149;SDS011;16962;48.646;9.026;2022-08-21T15:07:30;2.25;;;1.80;;
30149;SDS011;16962;48.646;9.026;2022-08-21T15:10:17;5.00;;;2.20;;
30149;SDS011;16962;48.646;9.026;2022-08-21T15:13:04;4.45;;;2.55;;
30149;SDS011;16962;48.646;9.026;2022-08-21T15:15:52;5.47;;;2.38;;
30149;SDS011;16962;48.646;9.026;2022-08-21T15:18:42;6.10;;;2.53;;
30149;SDS011;16962;48.646;9.026;2022-08-21T15:21:30;5.15;;;2.40;;
30149;SDS011;16962;48.646;9.026;2022-08-21T15:24:19;5.55;;;2.60;;
30149;SDS011;16962;48.646;9.026;2022-08-21T15:27:07;4.35;;;2.60;;
30149;SDS011;16962;48.646;9.026;2022-08-21T15:29:56;7.10;;;2.47;;
30149;SDS011;16962;48.646;9.026;2022-08-21T15:32:46;4.35;;;2.67;;
30149;SDS011;16962;48.646;9.026;2022-08-21T15:35:33;7.60;;;2.65;;
30149;SDS011;16962;48.646;9.026;2022-08-21T15:38:26;6.47;;;2.08;;
30149;SDS011;16962;48.646;9.026;2022-08-21T15:41:13;5.63;;;2.38;;
30149;SDS011;16962;48.646;9.026;2022-08-21T15:44:01;5.32;;;2.22;;
30149;SDS011;16962;48.646;9.026;2022-08-21T15:46:51;4.28;;;2.25;;
30149;SDS011;16962;48.646;9.026;2022-08-21T15:49:38;4.80;;;2.60;;
30149;SDS011;16962;48.646;9.026;2022-08-21T15:55:18;4.35;;;2.25;;
30149;SDS011;16962;48.646;9.026;2022-08-21T15:58:07;3.85;;;2.20;;
30149;SDS011;16962;48.646;9.026;2022-08-21T16:01:00;6.80;;;2.95;;
30149;SDS011;16962;48.646;9.026;2022-08-21T16:03:48;6.35;;;2.63;;
30149;SDS011;16962;48.646;9.026;2022-08-21T16:06:38;5.50;;;2.58;;
30149;SDS011;16962;48.646;9.026;2022-08-21T16:09:40;6.90;;;2.50;;
30149;SDS011;16962;48.646;9.026;2022-08-21T16:12:30;5.45;;;2.78;;
30149;SDS011;16962;48.646;9.026;2022-08-21T16:15:21;5.90;;;2.83;;
30149;SDS011;16962;48.646;9.026;2022-08-21T16:18:08;6.22;;;2.70;;
30149;SDS011;16962;48.646;9.026;2022-08-21T16:21:00;6.30;;;2.50;;
30149;SDS011;16962;48.646;9.026;2022-08-21T16:23:50;7.53;;;2.67;;
30149;SDS011;16962;48.646;9.026;2022-08-21T16:26:37;7.55;;;2.60;;
30149;SDS011;16962;48.646;9.026;2022-08-21T16:29:26;6.63;;;2.78;;
30149;SDS011;16962;48.646;9.026;2022-08-21T16:32:19;4.28;;;2.35;;
30149;SDS011;16962;48.646;9.026;2022-08-21T16:35:07;5.53;;;2.58;;
30149;SDS011;16962;48.646;9.026;2022-08-21T16:38:01;7.28;;;2.63;;
30149;SDS011;16962;48.646;9.026;2022-08-21T16:40:48;8.05;;;2.65;;
30149;SDS011;16962;48.646;9.026;2022-08-21T16:43:36;7.20;;;2.95;;
30149;SDS011;16962;48.646;9.026;2022-08-21T16:46:28;4.53;;;2.38;;
30149;SDS011;16962;48.646;9.026;2022-08-21T16:49:18;3.63;;;2.25;;
30149;SDS011;16962;48.646;9.026;2022-08-21T16:52:06;8.88;;;3.35;;
30149;SDS011;16962;48.646;9.026;2022-08-21T16:54:54;4.55;;;2.53;;
30149;SDS011;16962;48.646;9.026;2022-08-21T16:57:42;6.03;;;2.70;;
30149;SDS011;16962;48.646;9.026;2022-08-21T17:00:30;5.28;;;2.58;;
30149;SDS011;16962;48.646;9.026;2022-08-21T17:03:18;5.25;;;2.78;;
30149;SDS011;16962;48.646;9.026;2022-08-21T17:06:07;5.13;;;2.55;;
30149;SDS011;16962;48.646;9.026;2022-08-21T17:08:56;6.60;;;2.53;;
30149;SDS011;16962;48.646;9.026;2022-08-21T17:11:45;8.73;;;2.80;;
30149;SDS011;16962;48.646;9.026;2022-08-21T17:14:35;11.68;;;2.55;;
30149;SDS011;16962;48.646;9.026;2022-08-21T17:17:23;7.28;;;2.70;;
30149;SDS011;16962;48.646;9.026;2022-08-21T17:20:10;9.48;;;3.08;;
30149;SDS011;16962;48.646;9.026;2022-08-21T17:22:57;4.93;;;2.75;;
30149;SDS011;16962;48.646;9.026;2022-08-21T17:25:46;5.28;;;2.58;;
30149;SDS011;16962;48.646;9.026;2022-08-21T17:28:36;4.88;;;2.63;;
30149;SDS011;16962;48.646;9.026;2022-08-21T17:31:24;4.75;;;2.70;;
30149;SDS011;16962;48.646;9.026;2022-08-21T17:34:13;7.07;;;2.60;;
30149;SDS011;16962;48.646;9.026;2022-08-21T17:37:05;5.13;;;2.63;;
30149;SDS011;16962;48.646;9.026;2022-08-21T17:39:55;5.53;;;2.83;;
30149;SDS011;16962;48.646;9.026;2022-08-21T17:42:43;5.20;;;2.58;;
30149;SDS011;16962;48.646;9.026;2022-08-21T17:45:33;6.80;;;2.72;;
30149;SDS011;16962;48.646;9.026;2022-08-21T17:48:23;5.65;;;2.58;;
30149;SDS011;16962;48.646;9.026;2022-08-21T17:51:11;4.90;;;2.75;;
30149;SDS011;16962;48.646;9.026;2022-08-21T17:54:01;5.57;;;2.50;;
30149;SDS011;16962;48.646;9.026;2022-08-21T17:56:48;8.43;;;2.47;;
30149;SDS011;16962;48.646;9.026;2022-08-21T17:59:35;7.85;;;2.47;;
30149;SDS011;16962;48.646;9.026;2022-08-21T18:02:23;5.10;;;2.78;;
30149;SDS011;16962;48.646;9.026;2022-08-21T18:05:11;8.00;;;2.97;;
30149;SDS011;16962;48.646;9.026;2022-08-21T18:07:59;8.15;;;3.15;;
30149;SDS011;16962;48.646;9.026;2022-08-21T18:10:48;5.32;;;2.70;;
30149;SDS011;16962;48.646;9.026;2022-08-21T18:13:37;6.60;;;3.00;;
30149;SDS011;16962;48.646;9.026;2022-08-21T18:16:29;5.85;;;3.28;;
30149;SDS011;16962;48.646;9.026;2022-08-21T18:19:19;4.60;;;2.83;;
30149;SDS011;16962;48.646;9.026;2022-08-21T18:22:10;4.05;;;2.80;;
30149;SDS011;16962;48.646;9.026;2022-08-21T18:24:58;6.47;;;2.85;;
30149;SDS011;16962;48.646;9.026;2022-08-21T18:27:48;5.55;;;2.80;;
30149;SDS011;16962;48.646;9.026;2022-08-21T18:30:36;9.30;;;3.60;;
30149;SDS011;16962;48.646;9.026;2022-08-21T18:33:28;7.22;;;3.05;;
30149;SDS011;16962;48.646;9.026;2022-08-21T18:36:15;4.85;;;2.90;;
30149;SDS011;16962;48.646;9.026;2022-08-21T18:39:03;5.07;;;2.65;;